createdAt,value
2018-05-16T00:02:14.787Z,12.90
2018-05-16T00:04:43.151Z,14.27
2018-05-16T00:07:11.490Z,14.40
2018-05-16T00:09:39.816Z,13.87
2018-05-16T00:12:08.174Z,15.17
2018-05-16T00:14:36.625Z,16.60
2018-05-16T00:17:05.671Z,17.97
2018-05-16T00:19:34.078Z,18.07
2018-05-16T00:22:02.509Z,17.30
2018-05-16T00:24:30.861Z,17.40
2018-05-16T00:26:59.480Z,17.03
2018-05-16T00:29:27.837Z,18.60
2018-05-16T00:31:56.223Z,18.13
2018-05-16T00:34:24.565Z,19.13
2018-05-16T00:36:52.962Z,18.57
2018-05-16T00:39:21.347Z,17.30
2018-05-16T00:41:49.706Z,19.77
2018-05-16T00:44:18.028Z,22.00
2018-05-16T00:46:46.478Z,19.20
2018-05-16T00:49:14.809Z,20.87
2018-05-16T00:51:43.167Z,21.50
2018-05-16T00:54:11.511Z,21.50
2018-05-16T00:56:39.900Z,23.40
2018-05-16T00:59:08.229Z,25.00
2018-05-16T01:01:36.575Z,23.40
2018-05-16T01:04:04.959Z,23.00
2018-05-16T01:06:33.382Z,23.93
2018-05-16T01:09:01.769Z,25.17
2018-05-16T01:11:30.104Z,25.13
2018-05-16T01:13:58.567Z,25.67
2018-05-16T01:16:26.905Z,26.27
2018-05-16T01:18:55.243Z,25.77
2018-05-16T01:21:23.778Z,25.20
2018-05-16T01:23:52.166Z,26.67
2018-05-16T01:26:20.950Z,25.47
2018-05-16T01:28:49.263Z,24.97
2018-05-16T01:31:17.620Z,25.23
2018-05-16T01:33:45.998Z,25.70
2018-05-16T01:36:14.421Z,26.17
2018-05-16T01:38:42.764Z,25.13
2018-05-16T01:41:11.136Z,25.10
2018-05-16T01:43:39.508Z,26.20
2018-05-16T01:46:07.859Z,26.03
2018-05-16T01:48:36.441Z,24.93
2018-05-16T01:51:04.784Z,26.50
2018-05-16T01:53:34.076Z,23.97
2018-05-16T01:56:02.508Z,26.37
2018-05-16T01:58:30.851Z,27.57
2018-05-16T02:00:59.195Z,26.63
2018-05-16T02:03:27.564Z,26.77
2018-05-16T02:05:56.543Z,26.77
2018-05-16T02:08:25.123Z,25.37
2018-05-16T02:10:53.537Z,26.57
2018-05-16T02:13:21.873Z,25.53
2018-05-16T02:15:50.240Z,27.10
2018-05-16T02:18:18.619Z,25.20
2018-05-16T02:20:46.987Z,26.47
2018-05-16T02:23:15.309Z,25.60
2018-05-16T02:25:43.682Z,24.30
2018-05-16T02:28:12.072Z,23.90
2018-05-16T02:30:40.786Z,25.70
2018-05-16T02:33:09.216Z,25.77
2018-05-16T02:35:37.540Z,27.00
2018-05-16T02:38:05.880Z,27.67
2018-05-16T02:40:34.271Z,25.23
2018-05-16T02:43:02.660Z,23.33
2018-05-16T02:45:31.051Z,24.60
2018-05-16T02:47:59.390Z,23.97
2018-05-16T02:50:29.866Z,24.13
2018-05-16T02:52:58.197Z,25.10
2018-05-16T02:55:26.537Z,24.57
2018-05-16T02:57:55.379Z,24.03
2018-05-16T03:00:23.767Z,28.20
2018-05-16T03:02:52.117Z,27.07
2018-05-16T03:05:20.483Z,25.70
2018-05-16T03:07:48.850Z,24.53
2018-05-16T03:10:17.195Z,25.17
2018-05-16T03:12:45.540Z,26.47
2018-05-16T03:15:13.916Z,25.80
2018-05-16T03:17:42.277Z,24.53
2018-05-16T03:20:10.615Z,26.37
2018-05-16T03:22:38.939Z,23.93
2018-05-16T03:25:07.271Z,26.60
2018-05-16T03:27:35.680Z,25.67
2018-05-16T03:30:04.030Z,23.67
2018-05-16T03:32:32.402Z,25.57
2018-05-16T03:35:00.808Z,23.80
2018-05-16T03:37:29.175Z,23.93
2018-05-16T03:39:57.504Z,22.43
2018-05-16T03:42:25.924Z,22.77
2018-05-16T03:44:54.271Z,20.50
2018-05-16T03:47:22.621Z,22.20
2018-05-16T03:49:50.959Z,23.23
2018-05-16T03:52:19.369Z,22.43
2018-05-16T03:54:48.524Z,23.87
2018-05-16T03:57:28.893Z,26.90
2018-05-16T04:00:09.293Z,25.60
2018-05-16T04:02:49.508Z,27.63
2018-05-16T04:05:17.921Z,29.23
2018-05-16T04:07:46.288Z,28.17
2018-05-16T04:10:14.914Z,27.53
2018-05-16T04:12:43.265Z,26.73
2018-05-16T04:15:11.611Z,26.43
2018-05-16T04:17:39.943Z,26.60
2018-05-16T04:20:08.306Z,26.73
2018-05-16T04:22:36.624Z,25.73
2018-05-16T04:25:05.021Z,25.83
2018-05-16T04:27:33.359Z,25.43
2018-05-16T04:30:01.749Z,25.60
2018-05-16T04:32:30.135Z,24.70
2018-05-16T04:34:58.540Z,23.77
2018-05-16T04:37:26.893Z,22.43
2018-05-16T04:39:55.236Z,23.30
2018-05-16T04:42:23.583Z,21.03
2018-05-16T04:44:51.918Z,21.37
2018-05-16T04:47:20.250Z,18.23
2018-05-16T04:49:48.689Z,19.20
2018-05-16T04:52:17.032Z,18.23
2018-05-16T04:54:45.489Z,20.07
2018-05-16T04:57:13.822Z,20.37
2018-05-16T04:59:42.179Z,18.50
2018-05-16T05:02:10.553Z,16.83
2018-05-16T05:04:38.939Z,19.03
2018-05-16T05:07:08.149Z,15.83
2018-05-16T05:09:36.500Z,16.17
2018-05-16T05:12:04.845Z,17.10
2018-05-16T05:14:33.244Z,15.53
2018-05-16T05:17:02.036Z,16.23
2018-05-16T05:19:30.504Z,14.37
2018-05-16T05:21:58.924Z,15.43
2018-05-16T05:24:27.269Z,18.40
2018-05-16T05:26:55.616Z,17.80
2018-05-16T05:29:23.989Z,19.70
2018-05-16T05:31:52.393Z,16.90
2018-05-16T05:34:20.820Z,19.20
2018-05-16T05:36:49.210Z,18.20
2018-05-16T05:39:17.487Z,18.73
2018-05-16T05:41:45.866Z,18.47
2018-05-16T05:44:14.207Z,19.90
2018-05-16T05:46:42.592Z,18.70
2018-05-16T05:49:13.394Z,17.50
2018-05-16T05:51:41.967Z,18.03
2018-05-16T05:54:10.386Z,19.87
2018-05-16T05:56:38.719Z,19.83
2018-05-16T05:59:07.089Z,20.77
2018-05-16T06:01:35.461Z,22.30
2018-05-16T06:04:03.830Z,22.13
2018-05-16T06:06:32.156Z,23.47
2018-05-16T06:09:00.487Z,22.33
2018-05-16T06:11:28.824Z,22.10
2018-05-16T06:13:57.208Z,21.33
2018-05-16T06:16:25.549Z,23.67
2018-05-16T06:18:53.909Z,23.27
2018-05-16T06:21:22.232Z,24.50
2018-05-16T06:23:50.678Z,25.20
2018-05-16T06:26:19.018Z,26.00
2018-05-16T06:28:47.357Z,28.53
2018-05-16T06:31:15.703Z,26.57
2018-05-16T06:33:44.138Z,29.40
2018-05-16T06:36:12.486Z,29.37
2018-05-16T06:38:40.824Z,31.13
2018-05-16T06:41:09.229Z,30.87
2018-05-16T06:43:37.558Z,30.23
2018-05-16T06:46:06.699Z,32.87
2018-05-16T06:48:35.139Z,33.17
2018-05-16T06:51:03.546Z,35.97
2018-05-16T06:53:31.870Z,36.73
2018-05-16T06:56:00.214Z,36.60
2018-05-16T06:58:28.588Z,38.87
2018-05-16T07:00:56.946Z,37.67
2018-05-16T07:03:25.364Z,39.67
2018-05-16T07:05:53.716Z,43.33
2018-05-16T07:08:22.152Z,39.07
2018-05-16T07:10:51.919Z,39.67
2018-05-16T07:13:20.265Z,39.70
2018-05-16T07:15:48.615Z,39.70
2018-05-16T07:18:22.910Z,37.73
2018-05-16T07:20:52.031Z,39.90
2018-05-16T07:23:20.357Z,37.33
2018-05-16T07:25:48.701Z,38.17
2018-05-16T07:28:17.028Z,38.90
2018-05-16T07:30:45.420Z,36.87
2018-05-16T07:33:13.761Z,38.83
2018-05-16T07:35:42.080Z,39.20
2018-05-16T07:38:10.424Z,38.03
2018-05-16T07:40:39.552Z,38.00
2018-05-16T07:43:08.338Z,40.17
2018-05-16T07:45:36.748Z,37.77
2018-05-16T07:48:05.504Z,39.17
2018-05-16T07:50:33.847Z,40.23
2018-05-16T07:53:02.197Z,44.07
2018-05-16T07:55:30.524Z,46.17
2018-05-16T07:57:58.937Z,43.03
2018-05-16T08:00:27.309Z,43.63
2018-05-16T08:02:55.662Z,45.27
2018-05-16T08:05:24.096Z,42.27
2018-05-16T08:07:52.439Z,40.57
2018-05-16T08:10:20.835Z,38.87
2018-05-16T08:12:49.292Z,40.73
2018-05-16T08:15:17.771Z,40.27
2018-05-16T08:17:46.123Z,40.37
2018-05-16T08:20:14.577Z,38.20
2018-05-16T08:22:42.952Z,37.90
2018-05-16T08:25:11.290Z,36.87
2018-05-16T08:27:39.612Z,35.27
2018-05-16T08:30:07.979Z,35.10
2018-05-16T08:32:36.421Z,34.50
2018-05-16T08:35:04.759Z,35.10
2018-05-16T08:37:33.079Z,33.77
2018-05-16T08:40:01.500Z,33.33
2018-05-16T08:42:30.188Z,32.33
2018-05-16T08:44:58.523Z,33.50
2018-05-16T08:47:26.868Z,28.70
2018-05-16T08:49:55.204Z,29.37
2018-05-16T08:52:23.556Z,28.70
2018-05-16T08:54:51.908Z,26.20
2018-05-16T08:57:20.237Z,27.70
2018-05-16T08:59:48.621Z,28.83
2018-05-16T09:02:17.026Z,27.77
2018-05-16T09:04:45.365Z,27.53
2018-05-16T09:07:13.815Z,26.63
2018-05-16T09:09:42.623Z,27.03
2018-05-16T09:12:10.957Z,26.37
2018-05-16T09:14:39.310Z,27.17
2018-05-16T09:17:07.710Z,27.93
2018-05-16T09:19:36.060Z,27.20
2018-05-16T09:22:04.449Z,25.57
2018-05-16T09:24:32.791Z,25.17
2018-05-16T09:27:01.331Z,25.37
2018-05-16T09:29:29.663Z,27.80
2018-05-16T09:31:58.025Z,25.43
2018-05-16T09:34:26.360Z,26.20
2018-05-16T09:36:54.789Z,26.93
2018-05-16T09:39:23.125Z,26.10
2018-05-16T09:41:51.553Z,27.20
2018-05-16T09:44:19.873Z,28.87
2018-05-16T09:46:48.311Z,28.77
2018-05-16T09:49:16.649Z,29.03
2018-05-16T09:51:44.974Z,28.80
2018-05-16T09:54:13.334Z,29.77
2018-05-16T09:56:41.688Z,30.30
2018-05-16T09:59:10.018Z,30.03
2018-05-16T10:01:38.404Z,31.20
2018-05-16T10:04:06.764Z,29.43
2018-05-16T10:06:35.147Z,31.10
2018-05-16T10:09:03.490Z,30.90
2018-05-16T10:11:31.811Z,31.70
2018-05-16T10:14:00.228Z,34.80
2018-05-16T10:16:28.585Z,32.00
2018-05-16T10:18:56.924Z,35.53
2018-05-16T10:21:25.277Z,32.53
2018-05-16T10:23:53.614Z,34.33
2018-05-16T10:26:21.984Z,32.23
2018-05-16T10:28:50.332Z,34.80
2018-05-16T10:31:18.671Z,34.23
2018-05-16T10:33:47.063Z,34.53
2018-05-16T10:36:15.408Z,31.87
2018-05-16T10:38:43.896Z,32.60
2018-05-16T10:41:12.242Z,36.03
2018-05-16T10:43:40.581Z,33.50
2018-05-16T10:46:08.952Z,33.40
2018-05-16T10:48:37.353Z,33.53
2018-05-16T10:51:06.314Z,37.63
2018-05-16T10:53:34.718Z,34.00
2018-05-16T10:56:03.059Z,35.30
2018-05-16T10:58:31.412Z,35.00
2018-05-16T11:00:59.789Z,36.40
2018-05-16T11:03:28.196Z,37.13
2018-05-16T11:05:56.475Z,36.10
2018-05-16T11:08:24.819Z,37.83
2018-05-16T11:10:53.258Z,36.87
2018-05-16T11:13:21.712Z,38.50
2018-05-16T11:15:50.060Z,36.83
2018-05-16T11:18:18.426Z,37.33
2018-05-16T11:20:46.832Z,35.13
2018-05-16T11:23:15.158Z,35.97
2018-05-16T11:25:43.566Z,35.47
2018-05-16T11:28:11.876Z,31.03
2018-05-16T11:30:40.248Z,35.50
2018-05-16T11:33:08.684Z,32.67
2018-05-16T11:35:37.082Z,34.87
2018-05-16T11:38:05.656Z,33.97
2018-05-16T11:40:34.258Z,33.97
2018-05-16T11:43:02.608Z,32.27
2018-05-16T11:45:30.944Z,34.10
2018-05-16T11:47:59.295Z,32.57
2018-05-16T11:50:27.616Z,34.33
2018-05-16T11:52:55.982Z,32.20
2018-05-16T11:55:24.308Z,35.37
2018-05-16T11:57:52.715Z,33.80
2018-05-16T12:00:21.099Z,34.73
2018-05-16T12:02:49.527Z,34.07
2018-05-16T12:05:17.786Z,32.53
2018-05-16T12:07:46.177Z,31.93
2018-05-16T12:10:14.527Z,31.03
2018-05-16T12:12:42.857Z,30.53
2018-05-16T12:15:11.215Z,30.27
2018-05-16T12:17:39.647Z,32.87
2018-05-16T12:20:08.933Z,31.07
2018-05-16T12:22:37.257Z,31.00
2018-05-16T12:25:05.597Z,29.07
2018-05-16T12:27:33.929Z,27.93
2018-05-16T12:30:02.265Z,26.20
2018-05-16T12:32:30.910Z,29.20
2018-05-16T12:34:59.325Z,26.63
2018-05-16T12:37:27.663Z,27.33
2018-05-16T12:39:56.027Z,26.40
2018-05-16T12:42:24.387Z,25.80
2018-05-16T12:44:52.747Z,24.50
2018-05-16T12:47:21.079Z,24.77
2018-05-16T12:49:49.434Z,26.77
2018-05-16T12:52:17.770Z,26.80
2018-05-16T12:54:46.153Z,28.83
2018-05-16T12:57:14.554Z,28.57
2018-05-16T12:59:42.936Z,26.33
2018-05-16T13:02:11.266Z,27.73
2018-05-16T13:04:39.624Z,22.30
2018-05-16T13:07:08.043Z,25.23
2018-05-16T13:09:36.316Z,24.27
2018-05-16T13:12:04.769Z,27.13
2018-05-16T13:17:24.555Z,22.27
2018-05-16T13:19:53.030Z,23.40
2018-05-16T13:22:21.443Z,22.73
2018-05-16T13:27:42.373Z,22.20
2018-05-16T13:30:10.780Z,19.90
2018-05-16T13:32:39.129Z,18.20
2018-05-16T13:35:07.542Z,19.27
2018-05-16T13:37:35.883Z,20.55
2018-05-16T13:40:04.206Z,19.58
2018-05-16T13:42:32.538Z,18.25
2018-05-16T13:45:00.882Z,18.45
2018-05-16T13:47:29.381Z,19.12
2018-05-16T13:49:57.821Z,17.98
2018-05-16T13:55:17.358Z,18.37
2018-05-16T13:57:45.687Z,19.70
2018-05-16T14:00:14.030Z,19.40
2018-05-16T14:02:42.333Z,19.77
2018-05-16T14:05:10.791Z,17.70
2018-05-16T14:13:21.245Z,17.13
2018-05-16T14:15:49.593Z,17.23
2018-05-16T14:18:17.921Z,17.63
2018-05-16T14:20:46.317Z,17.90
2018-05-16T14:23:14.655Z,20.37
2018-05-16T14:25:43.001Z,19.57
2018-05-16T14:28:11.435Z,17.57
2018-05-16T14:30:39.829Z,18.97
2018-05-16T14:33:08.155Z,19.97
2018-05-16T14:35:36.576Z,19.77
2018-05-16T14:38:04.955Z,19.37
2018-05-16T14:40:33.296Z,19.47
2018-05-16T14:43:01.633Z,21.37
2018-05-16T14:45:30.028Z,19.73
2018-05-16T14:47:58.371Z,20.07
2018-05-16T14:50:26.743Z,18.63
2018-05-16T14:52:55.150Z,16.90
2018-05-16T14:55:23.669Z,14.23
2018-05-16T14:57:52.025Z,15.10
2018-05-16T15:00:20.344Z,17.37
2018-05-16T15:02:48.760Z,18.07
2018-05-16T15:05:17.119Z,17.10
2018-05-16T15:07:46.436Z,17.70
2018-05-16T15:10:14.766Z,16.43
2018-05-16T15:12:43.106Z,16.00
2018-05-16T15:15:11.505Z,14.03
2018-05-16T15:17:39.875Z,13.63
2018-05-16T15:20:08.248Z,11.17
2018-05-16T15:22:36.606Z,8.33
2018-05-16T15:25:04.929Z,8.13
2018-05-16T15:27:33.313Z,8.60
2018-05-16T15:30:01.953Z,8.67
2018-05-16T15:32:31.238Z,8.47
2018-05-16T15:34:59.618Z,6.83
2018-05-16T15:37:27.936Z,7.73
2018-05-16T15:39:56.286Z,7.57
2018-05-16T15:42:24.617Z,8.23
2018-05-16T15:44:52.971Z,7.80
2018-05-16T15:47:21.360Z,7.40
2018-05-16T15:49:49.932Z,7.90
2018-05-16T15:52:18.236Z,8.30
2018-05-16T15:54:46.582Z,7.37
2018-05-16T15:57:14.933Z,7.23
2018-05-16T15:59:43.580Z,6.90
2018-05-16T16:02:13.980Z,7.93
2018-05-16T16:04:42.289Z,6.10
2018-05-16T16:07:10.614Z,6.63
2018-05-16T16:09:38.925Z,6.07
2018-05-16T16:12:07.303Z,6.47
2018-05-16T16:14:35.614Z,6.10
2018-05-16T16:17:04.028Z,7.77
2018-05-16T16:19:32.339Z,6.03
2018-05-16T16:22:00.697Z,6.70
2018-05-16T16:24:29.023Z,6.10
2018-05-16T16:26:57.354Z,6.20
2018-05-16T16:29:25.681Z,5.70
2018-05-16T16:31:55.204Z,6.53
2018-05-16T16:34:23.588Z,6.50
2018-05-16T16:36:51.929Z,6.60
2018-05-16T16:39:20.380Z,5.70
2018-05-16T16:41:48.721Z,6.60
2018-05-16T16:44:17.035Z,7.30
2018-05-16T16:46:45.457Z,7.10
2018-05-16T16:49:13.994Z,7.60
2018-05-16T16:51:42.348Z,7.73
2018-05-16T16:54:10.677Z,7.13
2018-05-16T16:56:39.038Z,7.50
2018-05-16T16:59:07.439Z,7.60
2018-05-16T17:01:35.767Z,6.10
2018-05-16T17:04:04.178Z,7.03
2018-05-16T17:06:32.493Z,8.17
2018-05-16T17:09:00.905Z,7.20
2018-05-16T17:11:29.237Z,8.33
2018-05-16T17:13:57.685Z,7.83
2018-05-16T17:16:25.969Z,8.07
2018-05-16T17:18:54.304Z,8.17
2018-05-16T17:21:22.755Z,8.13
2018-05-16T17:23:51.152Z,8.43
2018-05-16T17:26:19.536Z,8.17
2018-05-16T17:28:47.870Z,9.10
2018-05-16T17:31:16.223Z,9.67
2018-05-16T17:33:44.582Z,9.47
2018-05-16T17:36:12.920Z,8.70
2018-05-16T17:38:41.301Z,8.50
2018-05-16T17:41:09.642Z,7.70
2018-05-16T17:43:37.974Z,8.67
2018-05-16T17:46:06.317Z,8.00
2018-05-16T17:48:34.628Z,9.13
2018-05-16T17:51:03.023Z,9.50
2018-05-16T17:53:31.332Z,9.73
2018-05-16T17:55:59.778Z,8.47
2018-05-16T17:58:28.323Z,8.40
2018-05-16T18:00:57.654Z,9.00
2018-05-16T18:03:25.941Z,9.60
2018-05-16T18:05:54.326Z,8.83
2018-05-16T18:08:22.646Z,8.63
2018-05-16T18:10:51.185Z,7.33
2018-05-16T18:16:43.411Z,8.70
2018-05-16T18:19:11.742Z,9.17
2018-05-16T18:21:40.096Z,8.73
2018-05-16T18:24:08.400Z,8.60
2018-05-16T18:26:36.716Z,9.33
2018-05-16T18:29:05.061Z,8.47
2018-05-16T18:31:33.372Z,9.00
2018-05-16T18:34:02.127Z,9.90
2018-05-16T18:36:30.445Z,9.77
2018-05-16T18:38:58.780Z,9.17
2018-05-16T18:41:27.156Z,11.17
2018-05-16T18:43:55.626Z,10.37
2018-05-16T18:46:24.176Z,10.17
2018-05-16T18:48:52.674Z,10.90
2018-05-16T18:51:21.117Z,10.17
2018-05-16T18:53:49.450Z,12.40
2018-05-16T18:56:17.815Z,11.93
2018-05-16T18:58:46.154Z,11.43
2018-05-16T19:01:14.473Z,12.43
2018-05-16T19:03:44.125Z,12.27
2018-05-16T19:06:12.457Z,13.00
2018-05-16T19:08:41.100Z,12.43
2018-05-16T19:11:09.431Z,11.77
2018-05-16T19:13:37.746Z,13.17
2018-05-16T19:16:06.201Z,11.57
2018-05-16T19:18:34.552Z,12.03
2018-05-16T19:21:02.929Z,12.33
2018-05-16T19:23:31.248Z,12.43
2018-05-16T19:25:59.950Z,12.77
2018-05-16T19:28:28.323Z,13.13
2018-05-16T19:30:56.655Z,12.73
2018-05-16T19:33:24.991Z,12.43
2018-05-16T19:35:53.475Z,13.60
2018-05-16T19:38:21.841Z,12.33
2018-05-16T19:40:50.201Z,11.67
2018-05-16T19:43:18.591Z,12.40
2018-05-16T19:45:46.964Z,10.87
2018-05-16T19:48:15.296Z,12.23
2018-05-16T19:50:43.852Z,12.40
2018-05-16T19:53:12.173Z,13.50
2018-05-16T19:55:40.575Z,12.70
2018-05-16T19:58:08.900Z,14.03
2018-05-16T20:00:38.319Z,13.47
2018-05-16T20:03:06.647Z,13.03
2018-05-16T20:05:35.034Z,15.43
2018-05-16T20:08:03.583Z,17.50
2018-05-16T20:10:31.905Z,16.77
2018-05-16T20:13:00.373Z,17.47
2018-05-16T20:15:28.740Z,17.83
2018-05-16T20:17:57.068Z,18.33
2018-05-16T20:20:25.412Z,18.67
2018-05-16T20:22:53.745Z,22.17
2018-05-16T20:25:22.110Z,19.47
2018-05-16T20:27:50.439Z,20.00
2018-05-16T20:30:18.787Z,20.70
2018-05-16T20:32:47.127Z,21.30
2018-05-16T20:35:15.455Z,21.60
2018-05-16T20:37:44.892Z,20.43
2018-05-16T20:40:13.262Z,23.33
2018-05-16T20:42:41.653Z,24.17
2018-05-16T20:45:10.043Z,20.87
2018-05-16T20:47:38.370Z,23.47
2018-05-16T20:50:06.701Z,23.50
2018-05-16T20:52:35.216Z,23.13
2018-05-16T20:55:03.612Z,23.90
2018-05-16T20:57:31.992Z,22.03
2018-05-16T21:00:00.397Z,24.50
2018-05-16T21:02:29.018Z,22.63
2018-05-16T21:04:57.390Z,23.97
2018-05-16T21:07:25.779Z,24.93
2018-05-16T21:09:54.126Z,21.87
2018-05-16T21:12:22.506Z,19.73
2018-05-16T21:14:50.831Z,20.67
2018-05-16T21:17:19.172Z,20.20
2018-05-16T21:19:47.512Z,22.67
2018-05-16T21:22:15.926Z,21.07
2018-05-16T21:24:44.288Z,21.40
2018-05-16T21:27:12.633Z,21.57
2018-05-16T21:29:40.989Z,20.00
2018-05-16T21:32:09.393Z,19.47
2018-05-16T21:34:37.707Z,18.40
2018-05-16T21:37:06.035Z,18.50
2018-05-16T21:39:36.511Z,17.97
2018-05-16T21:42:04.835Z,18.60
2018-05-16T21:44:33.238Z,18.17
2018-05-16T21:47:01.602Z,19.77
2018-05-16T21:49:30.094Z,17.97
2018-05-16T21:51:58.425Z,19.23
2018-05-16T21:54:26.778Z,19.07
2018-05-16T21:56:55.117Z,19.07
2018-05-16T21:59:23.451Z,19.83
2018-05-16T22:01:51.895Z,19.93
2018-05-16T22:04:21.021Z,19.87
2018-05-16T22:06:49.400Z,20.37
2018-05-16T22:09:17.839Z,19.03
2018-05-16T22:11:46.256Z,20.57
2018-05-16T22:14:14.612Z,20.97
2018-05-16T22:16:43.025Z,20.77
2018-05-16T22:19:11.366Z,22.80
2018-05-16T22:21:39.804Z,22.20
2018-05-16T22:24:08.148Z,21.87
2018-05-16T22:26:36.493Z,20.37
2018-05-16T22:29:12.689Z,23.47
2018-05-16T22:31:46.529Z,21.47
2018-05-16T22:34:20.614Z,21.77
2018-05-16T22:36:54.704Z,22.80
2018-05-16T22:39:28.766Z,22.30
2018-05-16T22:42:02.793Z,20.67
2018-05-16T22:44:46.021Z,20.37
2018-05-16T22:47:14.518Z,18.90
2018-05-16T22:49:43.666Z,20.47
2018-05-16T22:52:12.008Z,21.20
2018-05-16T22:54:41.347Z,21.53
2018-05-16T22:57:09.690Z,21.33
2018-05-16T22:59:38.019Z,19.23
2018-05-16T23:02:06.425Z,17.80
2018-05-16T23:04:34.849Z,19.47
2018-05-16T23:07:03.198Z,20.40
2018-05-16T23:09:31.524Z,19.27
2018-05-16T23:11:59.870Z,19.67
2018-05-16T23:14:28.215Z,18.93
2018-05-16T23:16:56.542Z,19.87
2018-05-16T23:19:24.944Z,20.23
2018-05-16T23:21:53.332Z,18.47
2018-05-16T23:24:21.730Z,19.23
2018-05-16T23:26:50.114Z,19.47
2018-05-16T23:29:18.491Z,19.53
2018-05-16T23:31:46.903Z,19.13
2018-05-16T23:34:15.296Z,20.50
2018-05-16T23:36:43.608Z,19.13
2018-05-16T23:39:11.980Z,22.57
2018-05-16T23:41:40.314Z,21.53
2018-05-16T23:44:08.661Z,20.80
2018-05-16T23:46:37.047Z,21.47
2018-05-16T23:49:05.384Z,23.50
2018-05-16T23:51:33.969Z,21.53
2018-05-16T23:54:02.323Z,22.23
2018-05-16T23:56:30.709Z,22.43
2018-05-16T23:58:59.784Z,21.63
